McAlister, NM

6:11 PM MST on March 06, 2015 (GMT -0700)
Clovis Municipal | Change Station
CLOSE
Current Station
Airport
Location: Clovis,
Elevation: 4216 ft
Nearby Weather Stations

Elev 4216 ft 34.43 °N, 103.08 °W | Updated 16 minutes ago

Clear
Clear
48 °F
Feels Like 48 °F
N
9
Wind Variable Wind from SSW

Today
High -- | Low -- °F
--% Chance of Precip.
Yesterday
High -- | Low -- °F
Precip. -- in
6:17 AM 5:54 PM
Full, 99% visible
Pressure 30.27 in
Visibility 10.0 miles
Clouds Clear
Dew Point 19 °F
Humidity 32%
Rainfall 0.00 in
Snow Depth Not available.
UV 0 out of 12
Pollen 5.70 out of 12
Air Quality Not available.
Flu Activity Not available.
METAR KCVN 070055Z AUTO 21008KT 10SM CLR 09/M07 A3027 RMK AO1

More Conditions Fewer Conditions

Pressure 30.27 in
Visibility 10.0 miles
Clouds Clear
Dew Point 19 °F
Humidity 32%
Rainfall 0.00 in
Snow Depth Not available.
UV 0 out of 12
Pollen 5.70 out of 12
Air Quality Not available.
Flu Activity Not available.
METAR KCVN 070055Z AUTO 21008KT 10SM CLR 09/M07 A3027 RMK AO1

More Conditions Fewer Conditions

10-Day Weather Forecast

Almanac

Astronomy

Mar. 06, 2015 Rise Set
Actual Time
Civil Twilight
Nautical Twilight
Astronomical Twilight
Moon
Length of Visible Light
Length of Day
Tomorrow will be .
, % of the Moon is Illuminated

Today's Extremes

State Highs State Lows

Community

WunderPhotos

Upload Photos

1,803,480 photos uploaded!

WunderBlogs® & News

Nearby

Air Quality

  Air Quality AQ Index Pollutant
Not available.

Snow Depth

Station Depth Elevation

Earthquake Activity

City Distance Mag. Time & Date
Minimum magnitude displayed is 2.5.

Coastal Water Temperatures

Place Temperature

Nearby Weather Stations